createdAt,value
2023-09-28T00:01:23.530Z,99722.56
2023-09-28T00:03:53.312Z,99713.97
2023-09-28T00:06:21.560Z,99719.38
2023-09-28T00:08:50.139Z,99719.44
2023-09-28T00:11:18.020Z,99716.78
2023-09-28T00:13:47.948Z,99712.97
2023-09-28T00:16:15.757Z,99720.59
2023-09-28T00:18:45.054Z,99716.38
2023-09-28T00:21:31.702Z,99714.13
2023-09-28T00:24:00.576Z,99715.69
2023-09-28T00:26:28.074Z,99713.72
2023-09-28T00:28:58.847Z,99716.13
2023-09-28T00:31:26.347Z,99712.06
2023-09-28T00:33:55.432Z,99713.94
2023-09-28T00:36:23.846Z,99712.25
2023-09-28T00:38:52.619Z,99718.81
2023-09-28T00:41:20.558Z,99725.94
2023-09-28T00:43:49.387Z,99727.13
2023-09-28T00:46:19.319Z,99726.31
2023-09-28T00:48:58.705Z,99714.81
2023-09-28T00:51:29.162Z,99718.59
2023-09-28T00:53:57.630Z,99717.81
2023-09-28T00:56:26.956Z,99719.56
2023-09-28T00:58:57.722Z,99723.13
2023-09-28T01:01:30.608Z,99718.00
2023-09-28T01:04:02.977Z,99724.28
2023-09-28T01:06:32.180Z,99726.97
2023-09-28T01:09:00.930Z,99729.75
2023-09-28T01:11:29.540Z,99724.28
2023-09-28T01:13:59.365Z,99723.47
2023-09-28T01:16:28.471Z,99719.25
2023-09-28T01:18:57.248Z,99720.22
2023-09-28T01:21:26.019Z,99719.88
2023-09-28T01:23:56.905Z,99718.47
2023-09-28T01:26:24.541Z,99723.00
2023-09-28T01:28:53.440Z,99708.53
2023-09-28T01:31:21.097Z,99712.06
2023-09-28T01:33:50.132Z,99712.22
2023-09-28T01:36:18.776Z,99708.59
2023-09-28T01:38:52.704Z,99716.31
2023-09-28T01:41:22.559Z,99712.94
2023-09-28T01:43:50.434Z,99714.56
2023-09-28T01:46:19.115Z,99721.78
2023-09-28T01:48:46.968Z,99715.81
2023-09-28T01:51:15.401Z,99719.13
2023-09-28T01:53:44.616Z,99713.94
2023-09-28T01:56:13.235Z,99720.59
2023-09-28T01:58:43.386Z,99717.38
2023-09-28T02:01:22.155Z,99719.72
2023-09-28T02:03:50.183Z,99721.72
2023-09-28T02:06:19.824Z,99723.47
2023-09-28T02:08:47.671Z,99729.13
2023-09-28T02:11:17.123Z,99718.00
2023-09-28T02:13:46.458Z,99724.50
2023-09-28T02:16:14.994Z,99720.63
2023-09-28T02:18:44.816Z,99717.81
2023-09-28T02:21:15.431Z,99717.88
2023-09-28T02:23:43.391Z,99721.75
2023-09-28T02:26:11.967Z,99722.63
2023-09-28T02:28:39.863Z,99716.19
2023-09-28T02:31:10.434Z,99713.84
2023-09-28T02:33:38.698Z,99715.34
2023-09-28T02:36:07.538Z,99721.47
2023-09-28T02:38:37.391Z,99711.53
2023-09-28T02:41:05.941Z,99722.00
2023-09-28T02:43:35.186Z,99722.88
2023-09-28T02:46:04.516Z,99718.28
2023-09-28T02:48:34.954Z,99713.41
2023-09-28T02:51:04.500Z,99720.38
2023-09-28T02:53:32.465Z,99719.16
2023-09-28T02:56:01.088Z,99720.97
2023-09-28T02:58:29.047Z,99715.56
2023-09-28T03:00:59.194Z,99714.50
2023-09-28T03:03:27.103Z,99714.56
2023-09-28T03:05:57.359Z,99720.59
2023-09-28T03:08:25.881Z,99711.75
2023-09-28T03:10:54.730Z,99711.66
2023-09-28T03:13:24.341Z,99701.81
2023-09-28T03:15:53.106Z,99707.13
2023-09-28T03:18:22.827Z,99706.22
2023-09-28T03:20:51.601Z,99715.97
2023-09-28T03:23:21.112Z,99708.94
2023-09-28T03:25:49.703Z,99711.47
2023-09-28T03:28:18.107Z,99721.28
2023-09-28T03:30:46.697Z,99716.06
2023-09-28T03:33:15.531Z,99716.34
2023-09-28T03:35:43.218Z,99723.31
2023-09-28T03:38:12.060Z,99722.47
2023-09-28T03:40:44.767Z,99720.81
2023-09-28T03:43:13.719Z,99720.88
2023-09-28T03:45:42.702Z,99721.47
2023-09-28T03:48:11.573Z,99720.97
2023-09-28T03:50:40.275Z,99728.94
2023-09-28T03:53:09.135Z,99729.53
2023-09-28T03:55:37.729Z,99736.47
2023-09-28T03:58:07.919Z,99733.03
2023-09-28T04:00:36.550Z,99738.28
2023-09-28T04:03:06.080Z,99736.41
2023-09-28T04:05:34.637Z,99732.13
2023-09-28T04:08:03.814Z,99731.09
2023-09-28T04:10:34.617Z,99726.56
2023-09-28T04:13:03.607Z,99724.78
2023-09-28T04:15:33.503Z,99733.03
2023-09-28T04:18:02.692Z,99731.41
2023-09-28T04:20:31.275Z,99731.47
2023-09-28T04:23:00.260Z,99736.78
2023-09-28T04:25:30.702Z,99738.16
2023-09-28T04:27:59.741Z,99736.06
2023-09-28T04:30:28.837Z,99745.19
2023-09-28T04:32:59.083Z,99741.75
2023-09-28T04:35:27.833Z,99747.22
2023-09-28T04:37:56.682Z,99753.44
2023-09-28T04:40:26.990Z,99749.72
2023-09-28T04:42:56.494Z,99745.72
2023-09-28T04:45:25.209Z,99752.28
2023-09-28T04:47:54.044Z,99748.69
2023-09-28T04:50:24.339Z,99745.53
2023-09-28T04:52:53.367Z,99752.81
2023-09-28T04:55:22.503Z,99751.38
2023-09-28T04:57:53.752Z,99748.41
2023-09-28T05:00:22.486Z,99757.34
2023-09-28T05:02:51.793Z,99746.88
2023-09-28T05:05:20.764Z,99746.47
2023-09-28T05:07:51.201Z,99748.97
2023-09-28T05:10:19.974Z,99748.97
2023-09-28T05:12:49.070Z,99750.13
2023-09-28T05:15:18.203Z,99750.00
2023-09-28T05:17:47.226Z,99755.81
2023-09-28T05:20:16.039Z,99750.94
2023-09-28T05:22:45.115Z,99764.66
2023-09-28T05:25:14.078Z,99760.56
2023-09-28T05:27:43.187Z,99756.88
2023-09-28T05:30:13.328Z,99766.44
2023-09-28T05:32:42.398Z,99764.94
2023-09-28T05:35:11.753Z,99763.69
2023-09-28T05:37:40.805Z,99764.88
2023-09-28T05:40:11.169Z,99764.69
2023-09-28T05:42:42.264Z,99765.94
2023-09-28T05:45:12.008Z,99767.34
2023-09-28T05:47:41.286Z,99767.75
2023-09-28T05:50:10.653Z,99769.88
2023-09-28T05:52:39.836Z,99768.53
2023-09-28T05:55:09.185Z,99775.13
2023-09-28T05:57:38.244Z,99768.63
2023-09-28T06:00:10.806Z,99771.66
2023-09-28T06:02:40.067Z,99769.56
2023-09-28T06:05:11.174Z,99775.16
2023-09-28T06:07:40.254Z,99777.16
2023-09-28T06:10:10.468Z,99772.94
2023-09-28T06:12:39.444Z,99778.22
2023-09-28T06:15:10.736Z,99774.84
2023-09-28T06:17:39.684Z,99778.28
2023-09-28T06:20:10.413Z,99781.31
2023-09-28T06:22:40.301Z,99787.06
2023-09-28T06:25:10.140Z,99788.88
2023-09-28T06:27:39.561Z,99786.38
2023-09-28T06:30:11.403Z,99780.28
2023-09-28T06:32:40.460Z,99796.03
2023-09-28T06:35:11.448Z,99794.53
2023-09-28T06:37:40.859Z,99795.16
2023-09-28T06:40:10.531Z,99795.66
2023-09-28T06:42:40.709Z,99804.84
2023-09-28T06:45:13.734Z,99809.22
2023-09-28T06:47:54.687Z,99798.75
2023-09-28T06:50:31.645Z,99803.41
2023-09-28T06:53:00.691Z,99807.06
2023-09-28T06:55:29.379Z,99804.78
2023-09-28T06:57:58.749Z,99812.38
2023-09-28T07:00:30.671Z,99825.25
2023-09-28T07:02:59.726Z,99816.56
2023-09-28T07:05:28.636Z,99817.16
2023-09-28T07:07:57.657Z,99821.38
2023-09-28T07:10:26.419Z,99819.84
2023-09-28T07:12:55.945Z,99819.41
2023-09-28T07:15:24.651Z,99823.38
2023-09-28T07:17:54.991Z,99826.63
2023-09-28T07:20:24.029Z,99825.88
2023-09-28T07:22:52.997Z,99830.63
2023-09-28T07:25:22.535Z,99830.13
2023-09-28T07:27:51.866Z,99829.53
2023-09-28T07:30:21.562Z,99836.75
2023-09-28T07:32:51.745Z,99832.19
2023-09-28T07:35:22.285Z,99834.25
2023-09-28T07:38:11.391Z,99847.56
2023-09-28T07:40:47.433Z,99838.13
2023-09-28T07:43:17.290Z,99841.56
2023-09-28T07:45:46.253Z,99840.22
2023-09-28T07:48:15.561Z,99834.53
2023-09-28T07:50:45.794Z,99843.78
2023-09-28T07:53:14.799Z,99841.78
2023-09-28T07:55:43.656Z,99838.56
2023-09-28T08:00:48.368Z,99839.03
2023-09-28T08:03:17.502Z,99843.16
2023-09-28T08:05:47.633Z,99846.91
2023-09-28T08:08:18.958Z,99837.19
2023-09-28T08:10:49.011Z,99837.50
2023-09-28T08:13:19.078Z,99835.03
2023-09-28T08:15:47.962Z,99836.75
2023-09-28T08:18:16.947Z,99836.63
2023-09-28T08:20:59.550Z,99843.63
2023-09-28T08:23:37.326Z,99840.19
2023-09-28T08:26:06.136Z,99847.41
2023-09-28T08:28:35.085Z,99838.38
2023-09-28T08:31:06.813Z,99840.53
2023-09-28T08:33:35.794Z,99837.31
2023-09-28T08:36:05.154Z,99832.81
2023-09-28T08:38:34.163Z,99836.91
2023-09-28T08:41:08.170Z,99839.72
2023-09-28T08:43:44.128Z,99836.78
2023-09-28T08:46:15.308Z,99838.81
2023-09-28T08:48:47.687Z,99838.09
2023-09-28T08:51:17.871Z,99838.63
2023-09-28T08:53:51.297Z,99832.69
2023-09-28T08:56:22.095Z,99828.69
2023-09-28T08:58:51.994Z,99837.59
2023-09-28T09:01:21.822Z,99837.16
2023-09-28T09:03:51.599Z,99834.72
2023-09-28T09:06:24.184Z,99831.78
2023-09-28T09:08:56.559Z,99827.81
2023-09-28T09:11:28.504Z,99832.63
2023-09-28T09:13:58.229Z,99831.06
2023-09-28T09:16:29.285Z,99836.66
2023-09-28T09:18:59.422Z,99831.81
2023-09-28T09:21:40.305Z,99834.16
2023-09-28T09:24:11.795Z,99833.09
2023-09-28T09:26:43.927Z,99838.69
2023-09-28T09:29:14.045Z,99832.25
2023-09-28T09:31:43.981Z,99834.63
2023-09-28T09:34:13.851Z,99833.09
2023-09-28T09:36:43.494Z,99831.97
2023-09-28T09:39:23.683Z,99833.56
2023-09-28T09:41:54.676Z,99834.19
2023-09-28T09:44:25.701Z,99833.63
2023-09-28T09:46:56.165Z,99840.41
2023-09-28T09:49:27.470Z,99845.34
2023-09-28T09:51:56.936Z,99825.81
2023-09-28T09:54:26.008Z,99828.72
2023-09-28T09:56:56.063Z,99830.22
2023-09-28T09:59:25.428Z,99821.19
2023-09-28T10:01:55.529Z,99827.88
2023-09-28T10:04:27.755Z,99827.78
2023-09-28T10:06:58.049Z,99829.19
2023-09-28T10:09:28.990Z,99830.03
2023-09-28T10:12:00.945Z,99834.63
2023-09-28T10:14:30.098Z,99831.25
2023-09-28T10:16:59.960Z,99831.09
2023-09-28T10:19:30.145Z,99830.09
2023-09-28T10:21:59.152Z,99823.72
2023-09-28T10:24:33.071Z,99825.00
2023-09-28T10:27:12.158Z,99816.25
2023-09-28T10:29:42.515Z,99826.94
2023-09-28T10:32:28.246Z,99819.69
2023-09-28T10:35:29.758Z,99816.63
2023-09-28T10:38:20.718Z,99816.34
2023-09-28T10:40:53.357Z,99818.63
2023-09-28T10:43:31.085Z,99819.84
2023-09-28T10:46:03.372Z,99812.41
2023-09-28T10:48:35.065Z,99822.38
2023-09-28T10:51:04.612Z,99814.31
2023-09-28T10:53:33.391Z,99803.53
2023-09-28T10:56:04.921Z,99808.91
2023-09-28T10:58:35.860Z,99804.28
2023-09-28T11:01:07.863Z,99807.94
2023-09-28T11:03:38.023Z,99797.94
2023-09-28T11:06:09.598Z,99796.59
2023-09-28T11:08:38.923Z,99791.91
2023-09-28T11:11:08.158Z,99785.25
2023-09-28T11:13:38.876Z,99793.69
2023-09-28T11:16:08.712Z,99801.31
2023-09-28T11:18:39.781Z,99794.31
2023-09-28T11:21:09.247Z,99785.75
2023-09-28T11:23:38.020Z,99792.97
2023-09-28T11:26:07.439Z,99785.56
2023-09-28T11:28:36.579Z,99785.19
2023-09-28T11:31:10.623Z,99788.44
2023-09-28T11:33:40.038Z,99781.59
2023-09-28T11:36:12.688Z,99775.22
2023-09-28T11:38:41.885Z,99772.56
2023-09-28T11:41:10.936Z,99779.75
2023-09-28T11:43:47.267Z,99774.91
2023-09-28T11:46:20.447Z,99763.81
2023-09-28T11:48:49.137Z,99762.19
2023-09-28T11:51:18.478Z,99768.25
2023-09-28T11:53:47.196Z,99771.31
2023-09-28T11:56:17.936Z,99760.66
2023-09-28T11:58:46.616Z,99765.13
2023-09-28T12:01:15.672Z,99760.31
2023-09-28T12:03:48.713Z,99768.88
2023-09-28T12:06:19.090Z,99770.91
2023-09-28T12:08:50.942Z,99766.09
2023-09-28T12:11:20.484Z,99750.84
2023-09-28T12:13:49.170Z,99756.44
2023-09-28T12:16:18.176Z,99758.88
2023-09-28T12:18:48.348Z,99757.50
2023-09-28T12:21:17.483Z,99751.41
2023-09-28T12:23:46.161Z,99753.97
2023-09-28T12:26:15.579Z,99755.25
2023-09-28T12:28:44.350Z,99751.41
2023-09-28T12:31:13.665Z,99739.09
2023-09-28T12:33:43.960Z,99757.31
2023-09-28T12:36:15.641Z,99751.25
2023-09-28T12:38:44.434Z,99748.69
2023-09-28T12:41:13.560Z,99745.38
2023-09-28T12:43:42.294Z,99744.41
2023-09-28T12:46:12.316Z,99741.38
2023-09-28T12:48:42.475Z,99746.50
2023-09-28T12:51:12.368Z,99737.38
2023-09-28T12:53:42.496Z,99727.94
2023-09-28T12:56:11.614Z,99728.53
2023-09-28T12:58:40.453Z,99729.84
2023-09-28T13:01:11.392Z,99720.81
2023-09-28T13:03:40.805Z,99717.41
2023-09-28T13:06:10.852Z,99714.09
2023-09-28T13:08:39.597Z,99713.16
2023-09-28T13:11:15.057Z,99710.78
2023-09-28T13:13:44.063Z,99709.84
2023-09-28T13:16:14.772Z,99708.22
2023-09-28T13:18:43.686Z,99704.06
2023-09-28T13:21:15.196Z,99708.94
2023-09-28T13:23:43.912Z,99702.38
2023-09-28T13:26:15.070Z,99699.91
2023-09-28T13:28:45.400Z,99700.41
2023-09-28T13:31:15.299Z,99698.44
2023-09-28T13:33:44.431Z,99693.41
2023-09-28T13:36:16.122Z,99694.28
2023-09-28T13:38:45.307Z,99692.84
2023-09-28T13:41:15.911Z,99692.06
2023-09-28T13:43:45.546Z,99696.25
2023-09-28T13:46:14.653Z,99692.56
2023-09-28T13:48:43.799Z,99692.22
2023-09-28T13:51:13.178Z,99681.94
2023-09-28T13:53:41.900Z,99680.69
2023-09-28T13:56:11.356Z,99672.78
2023-09-28T13:58:41.381Z,99672.63
2023-09-28T14:01:14.876Z,99677.06
2023-09-28T14:03:43.816Z,99672.91
2023-09-28T14:06:15.302Z,99669.59
2023-09-28T14:08:44.549Z,99669.59
2023-09-28T14:11:13.983Z,99674.75
2023-09-28T14:13:44.853Z,99667.63
2023-09-28T14:16:13.845Z,99674.59
2023-09-28T14:18:43.193Z,99668.75
2023-09-28T14:21:12.529Z,99670.81
2023-09-28T14:23:41.514Z,99679.63
2023-09-28T14:26:10.691Z,99669.97
2023-09-28T14:28:39.444Z,99679.38
2023-09-28T14:31:10.323Z,99680.22
2023-09-28T14:33:39.339Z,99668.47
2023-09-28T14:36:08.701Z,99672.91
2023-09-28T14:38:38.971Z,99668.75
2023-09-28T14:41:08.074Z,99671.44
2023-09-28T14:43:36.845Z,99670.56
2023-09-28T14:46:05.885Z,99660.19
2023-09-28T14:48:36.318Z,99668.97
2023-09-28T14:51:05.318Z,99672.91
2023-09-28T14:53:34.197Z,99666.66
2023-09-28T14:56:03.619Z,99675.47
2023-09-28T14:58:34.226Z,99674.59
2023-09-28T15:01:03.337Z,99670.81
2023-09-28T15:03:32.300Z,99669.31
2023-09-28T15:06:03.811Z,99669.31
2023-09-28T15:08:33.510Z,99671.63
2023-09-28T15:11:03.262Z,99669.28
2023-09-28T15:13:33.460Z,99672.34
2023-09-28T15:16:02.510Z,99679.56
2023-09-28T15:18:31.165Z,99679.91
2023-09-28T15:21:00.202Z,99676.88
2023-09-28T15:23:30.288Z,99682.84
2023-09-28T15:26:03.673Z,99678.59
2023-09-28T15:28:33.682Z,99681.63
2023-09-28T15:31:02.721Z,99678.31
2023-09-28T15:33:31.430Z,99677.09
2023-09-28T15:36:00.636Z,99674.78
2023-09-28T15:38:30.752Z,99675.50
2023-09-28T15:40:59.931Z,99676.63
2023-09-28T15:43:29.749Z,99675.72
2023-09-28T15:45:58.846Z,99684.91
2023-09-28T15:48:27.733Z,99683.16
2023-09-28T15:50:56.779Z,99690.66
2023-09-28T15:53:25.775Z,99692.44
2023-09-28T15:55:56.202Z,99688.06
2023-09-28T15:58:24.918Z,99698.19
2023-09-28T16:00:53.894Z,99696.84
2023-09-28T16:03:22.758Z,99696.31
2023-09-28T16:05:51.863Z,99694.22
2023-09-28T16:08:20.847Z,99693.06
2023-09-28T16:10:50.050Z,99702.31
2023-09-28T16:13:20.093Z,99696.31
2023-09-28T16:15:49.177Z,99688.34
2023-09-28T16:18:17.857Z,99701.44
2023-09-28T16:20:46.896Z,99704.59
2023-09-28T16:23:15.944Z,99691.41
2023-09-28T16:25:44.980Z,99698.81
2023-09-28T16:28:13.633Z,99697.34
2023-09-28T16:30:44.032Z,99707.56
2023-09-28T16:33:12.743Z,99703.81
2023-09-28T16:35:41.870Z,99704.03
2023-09-28T16:38:12.765Z,99698.34
2023-09-28T16:40:42.018Z,99706.63
2023-09-28T16:43:10.625Z,99711.66
2023-09-28T16:45:39.798Z,99699.44
2023-09-28T16:48:10.440Z,99703.22
2023-09-28T16:50:39.717Z,99705.72
2023-09-28T16:53:08.420Z,99711.47
2023-09-28T16:55:37.449Z,99716.19
2023-09-28T16:58:07.163Z,99719.00
2023-09-28T17:00:36.157Z,99717.72
2023-09-28T17:03:06.828Z,99722.34
2023-09-28T17:05:37.469Z,99731.34
2023-09-28T17:08:07.118Z,99733.34
2023-09-28T17:10:36.170Z,99734.63
2023-09-28T17:13:05.091Z,99731.28
2023-09-28T17:15:34.497Z,99742.00
2023-09-28T17:18:18.192Z,99735.81
2023-09-28T17:20:51.635Z,99741.16
2023-09-28T17:23:20.442Z,99736.22
2023-09-28T17:25:51.186Z,99738.25
2023-09-28T17:28:19.902Z,99739.53
2023-09-28T17:30:48.977Z,99745.97
2023-09-28T17:33:17.722Z,99745.19
2023-09-28T17:35:46.818Z,99746.38
2023-09-28T17:38:17.028Z,99753.56
2023-09-28T17:40:46.101Z,99747.53
2023-09-28T17:43:14.756Z,99753.31
2023-09-28T17:45:45.289Z,99752.75
2023-09-28T17:48:14.189Z,99755.44
2023-09-28T17:50:43.704Z,99765.31
2023-09-28T17:53:13.326Z,99762.81
2023-09-28T17:55:44.625Z,99758.44
2023-09-28T17:58:13.280Z,99765.91
2023-09-28T18:00:42.356Z,99759.81
2023-09-28T18:03:11.119Z,99772.22
2023-09-28T18:05:40.285Z,99762.59
2023-09-28T18:08:09.300Z,99768.97
2023-09-28T18:10:38.401Z,99761.88
2023-09-28T18:13:08.869Z,99763.72
2023-09-28T18:15:38.562Z,99766.59
2023-09-28T18:18:07.731Z,99772.16
2023-09-28T18:20:36.802Z,99771.41
2023-09-28T18:23:05.907Z,99771.50
2023-09-28T18:25:35.175Z,99774.38
2023-09-28T18:28:06.148Z,99778.13
2023-09-28T18:30:36.570Z,99772.94
2023-09-28T18:33:05.727Z,99775.06
2023-09-28T18:35:34.921Z,99774.22
2023-09-28T18:38:04.020Z,99784.16
2023-09-28T18:40:33.158Z,99783.50
2023-09-28T18:43:01.928Z,99784.47
2023-09-28T18:45:30.871Z,99783.72
2023-09-28T18:48:00.912Z,99782.06
2023-09-28T18:50:30.004Z,99786.66
2023-09-28T18:52:58.751Z,99787.06
2023-09-28T18:55:29.114Z,99789.53
2023-09-28T18:57:57.810Z,99797.38
2023-09-28T19:00:27.255Z,99797.47
2023-09-28T19:02:56.123Z,99800.66
2023-09-28T19:05:26.690Z,99800.16
2023-09-28T19:07:55.472Z,99800.44
2023-09-28T19:10:24.474Z,99801.69
2023-09-28T19:12:53.174Z,99795.09
2023-09-28T19:15:22.429Z,99800.44
2023-09-28T19:17:55.521Z,99790.31
2023-09-28T19:20:26.840Z,99796.72
2023-09-28T19:22:55.812Z,99800.63
2023-09-28T19:25:24.758Z,99801.59
2023-09-28T19:27:53.997Z,99795.19
2023-09-28T19:30:23.912Z,99796.03
2023-09-28T19:32:52.681Z,99808.53
2023-09-28T19:35:21.921Z,99801.59
2023-09-28T19:37:52.195Z,99796.25
2023-09-28T19:40:21.730Z,99801.59
2023-09-28T19:42:50.418Z,99800.72
2023-09-28T19:45:19.766Z,99807.78
2023-09-28T19:47:48.573Z,99803.59
2023-09-28T19:50:18.570Z,99802.72
2023-09-28T19:52:47.220Z,99798.53
2023-09-28T19:55:17.806Z,99798.63
2023-09-28T19:57:46.498Z,99804.22
2023-09-28T20:00:16.453Z,99799.09
2023-09-28T20:02:45.088Z,99800.88
2023-09-28T20:05:14.212Z,99800.13
2023-09-28T20:07:42.966Z,99802.13
2023-09-28T20:10:12.516Z,99804.13
2023-09-28T20:12:43.265Z,99798.97
2023-09-28T20:15:12.875Z,99802.88
2023-09-28T20:17:42.150Z,99803.00
2023-09-28T20:20:12.650Z,99807.59
2023-09-28T20:22:55.741Z,99799.94
2023-09-28T20:25:26.159Z,99802.78
2023-09-28T20:27:56.276Z,99799.66
2023-09-28T20:30:25.373Z,99800.59
2023-09-28T20:32:54.493Z,99808.88
2023-09-28T20:35:23.693Z,99804.69
2023-09-28T20:37:52.518Z,99801.50
2023-09-28T20:40:21.675Z,99799.69
2023-09-28T20:42:50.448Z,99805.09
2023-09-28T20:45:21.313Z,99804.25
2023-09-28T20:47:50.168Z,99801.50
2023-09-28T20:50:19.188Z,99801.84
2023-09-28T20:52:48.437Z,99804.44
2023-09-28T20:55:18.273Z,99801.19
2023-09-28T20:57:47.531Z,99793.78
2023-09-28T21:00:17.182Z,99797.16
2023-09-28T21:02:47.420Z,99799.97
2023-09-28T21:05:16.579Z,99799.56
2023-09-28T21:07:45.943Z,99795.59
2023-09-28T21:10:15.374Z,99791.28
2023-09-28T21:12:44.130Z,99793.00
2023-09-28T21:15:13.327Z,99793.97
2023-09-28T21:17:42.230Z,99794.03
2023-09-28T21:20:14.932Z,99803.88
2023-09-28T21:22:43.994Z,99790.59
2023-09-28T21:25:12.964Z,99795.16
2023-09-28T21:27:41.690Z,99796.28
2023-09-28T21:30:12.648Z,99795.69
2023-09-28T21:32:41.348Z,99792.25
2023-09-28T21:35:10.988Z,99801.19
2023-09-28T21:37:42.249Z,99802.03
2023-09-28T21:40:12.212Z,99797.50
2023-09-28T21:42:41.483Z,99804.47
2023-09-28T21:45:11.459Z,99803.25
2023-09-28T21:47:40.322Z,99801.53
2023-09-28T21:50:09.928Z,99799.91
2023-09-28T21:52:38.842Z,99800.59
2023-09-28T21:55:09.955Z,99801.34
2023-09-28T21:57:38.599Z,99803.25
2023-09-28T22:00:30.230Z,99806.97
2023-09-28T22:02:58.993Z,99800.81
2023-09-28T22:05:28.560Z,99801.94
2023-09-28T22:07:57.395Z,99801.88
2023-09-28T22:10:28.219Z,99802.56
2023-09-28T22:12:57.210Z,99806.28
2023-09-28T22:15:26.347Z,99807.06
2023-09-28T22:17:56.183Z,99807.63
2023-09-28T22:20:25.747Z,99813.84
2023-09-28T22:22:54.636Z,99813.94
2023-09-28T22:25:23.626Z,99809.09
2023-09-28T22:27:54.049Z,99817.78
2023-09-28T22:30:23.459Z,99816.31
2023-09-28T22:32:52.306Z,99819.22
2023-09-28T22:35:22.118Z,99816.97
2023-09-28T22:37:50.940Z,99824.19
2023-09-28T22:40:28.608Z,99825.06
2023-09-28T22:42:59.554Z,99819.00
2023-09-28T22:45:28.698Z,99822.72
2023-09-28T22:47:57.817Z,99826.59
2023-09-28T22:50:26.935Z,99834.25
2023-09-28T22:52:55.626Z,99827.59
2023-09-28T22:55:24.642Z,99828.91
2023-09-28T22:57:53.360Z,99829.47
2023-09-28T23:00:23.810Z,99829.38
2023-09-28T23:02:52.512Z,99817.41
2023-09-28T23:05:21.734Z,99827.34
2023-09-28T23:07:50.532Z,99823.16
2023-09-28T23:10:19.559Z,99821.91
2023-09-28T23:12:49.355Z,99831.38
2023-09-28T23:15:18.556Z,99824.94
2023-09-28T23:17:49.002Z,99828.31
2023-09-28T23:20:23.984Z,99830.91
2023-09-28T23:22:53.567Z,99833.41
2023-09-28T23:25:22.892Z,99822.91
2023-09-28T23:27:52.228Z,99830.06
2023-09-28T23:30:21.683Z,99824.94
2023-09-28T23:32:53.333Z,99826.75
2023-09-28T23:35:25.300Z,99822.34
2023-09-28T23:37:56.016Z,99820.88
2023-09-28T23:40:25.656Z,99823.72
2023-09-28T23:42:55.933Z,99821.34
2023-09-28T23:45:29.179Z,99822.50
2023-09-28T23:48:01.154Z,99821.88
2023-09-28T23:50:30.398Z,99819.00
2023-09-28T23:52:59.035Z,99819.78
2023-09-28T23:55:28.185Z,99818.78
2023-09-28T23:57:56.891Z,99818.94
